Time;durP1;ratioP1;P1;durP2;ratioP2;P2;SDS_P1;SDS_P2;PMS_P1;PMS_P2;Temp;Humidity;BMP_temperature;BMP_pressure;BME280_temperature;BME280_humidity;BME280_pressure;Samples;Min_cycle;Max_cycle;Signal;HPM_P1;HPM_P2
2022/10/31 00:00:23;;;;;;;10.10;8.13;;;;;;;13.39;96.31;98594.94;5138033;23;20622;-88
2022/10/31 00:02:27;;;;;;;13.37;9.30;;;;;;;13.38;96.13;98595.03;5138857;23;20644;-88
2022/10/31 00:04:30;;;;;;;13.93;8.40;;;;;;;13.36;95.58;98597.78;5163591;23;20617;-88
2022/10/31 00:06:33;;;;;;;10.17;7.83;;;;;;;13.35;96.40;98595.25;5162804;23;20570;-88
2022/10/31 00:08:35;;;;;;;10.53;7.60;;;;;;;13.32;95.76;98593.72;5189896;22;20617;-88
2022/10/31 00:10:43;;;;;;;12.60;7.33;;;;;;;13.29;95.88;98595.69;5138852;22;20614;-88
2022/10/31 00:12:46;;;;;;;12.40;7.80;;;;;;;13.29;95.81;98595.69;5137618;23;20629;-88
2022/10/31 00:14:49;;;;;;;13.40;7.93;;;;;;;13.27;95.66;98590.56;5162482;23;20590;-88
2022/10/31 00:16:53;;;;;;;11.77;7.40;;;;;;;13.26;95.49;98598.53;5189359;22;20584;-88
2022/10/31 00:18:57;;;;;;;12.97;7.77;;;;;;;13.24;95.86;98600.44;5138578;23;20584;-88
2022/10/31 00:21:02;;;;;;;19.53;7.73;;;;;;;13.23;95.76;98596.16;5137961;23;20676;-88
2022/10/31 00:23:06;;;;;;;11.07;8.13;;;;;;;13.22;95.67;98594.47;5162508;23;20672;-88
2022/10/31 00:25:09;;;;;;;12.13;7.20;;;;;;;13.19;96.00;98592.91;5136731;23;21177;-88
2022/10/31 00:27:14;;;;;;;16.40;7.67;;;;;;;13.17;95.77;98591.34;5138205;23;20617;-88
2022/10/31 00:29:17;;;;;;;9.83;7.00;;;;;;;13.14;95.53;98591.56;5187719;22;20627;-88
2022/10/31 00:31:20;;;;;;;10.23;7.27;;;;;;;13.09;94.92;98592.81;5162485;23;20586;-88
2022/10/31 00:33:25;;;;;;;13.20;7.43;;;;;;;13.07;94.99;98587.69;5187757;22;21120;-88
2022/10/31 00:35:28;;;;;;;20.97;7.00;;;;;;;13.06;94.83;98586.00;5162852;23;20574;-88
2022/10/31 00:37:33;;;;;;;10.57;7.40;;;;;;;13.05;95.41;98586.97;5138438;23;20574;-88
2022/10/31 00:39:36;;;;;;;18.20;7.80;;;;;;;13.04;96.02;98592.31;5162329;23;20936;-88
2022/10/31 00:41:39;;;;;;;13.70;8.17;;;;;;;13.03;94.93;98590.63;5138188;23;21129;-89
2022/10/31 00:43:49;;;;;;;11.60;6.73;;;;;;;13.02;95.57;98591.56;5190680;22;20614;-87
2022/10/31 00:45:52;;;;;;;8.20;7.13;;;;;;;12.99;95.21;98591.78;5136564;23;20581;-88
2022/10/31 00:47:55;;;;;;;10.27;7.07;;;;;;;12.97;95.43;98598.91;5137666;23;20580;-88
2022/10/31 00:49:58;;;;;;;10.40;7.27;;;;;;;12.94;94.66;98599.94;5162554;23;20596;-88
2022/10/31 00:52:02;;;;;;;13.30;7.33;;;;;;;12.92;95.39;98601.84;5163122;23;20627;-88
2022/10/31 00:54:05;;;;;;;10.93;6.90;;;;;;;12.90;95.32;98595.03;5137939;23;21465;-88
2022/10/31 00:56:08;;;;;;;14.20;6.30;;;;;;;12.87;95.13;98593.50;5163802;23;20580;-88
2022/10/31 00:58:11;;;;;;;9.47;6.60;;;;;;;12.86;95.19;98594.41;5138577;23;20632;-88
2022/10/31 01:00:16;;;;;;;13.33;7.03;;;;;;;12.84;94.70;98588.47;5162856;23;21151;-88
2022/10/31 01:02:20;;;;;;;10.80;7.17;;;;;;;12.82;94.46;98590.38;5162911;23;20583;-88
2022/10/31 01:04:24;;;;;;;12.03;7.13;;;;;;;12.81;94.49;98585.19;5137826;23;20610;-88
2022/10/31 01:06:27;;;;;;;10.33;7.20;;;;;;;12.80;95.45;98586.97;5190203;22;20577;-88
2022/10/31 01:08:32;;;;;;;12.53;6.80;;;;;;;12.80;94.91;98592.19;5162713;22;21211;-88
2022/10/31 01:10:36;;;;;;;13.20;6.83;;;;;;;12.78;95.28;98593.25;5163308;23;20580;-88
2022/10/31 01:12:39;;;;;;;14.40;6.30;;;;;;;12.76;95.42;98585.50;5163183;23;20576;-88
2022/10/31 01:14:44;;;;;;;11.03;6.80;;;;;;;12.76;95.21;98579.41;5188799;22;20606;-88
2022/10/31 01:16:48;;;;;;;15.43;7.10;;;;;;;12.76;96.54;98579.41;5162722;23;21331;-88
2022/10/31 01:18:52;;;;;;;10.53;6.53;;;;;;;12.78;96.13;98580.19;5164320;23;20572;-88
2022/10/31 01:21:02;;;;;;;12.10;7.03;;;;;;;12.77;96.63;98576.69;5139266;23;20611;-88
2022/10/31 01:23:05;;;;;;;9.17;6.17;;;;;;;12.76;96.06;98575.03;5139759;23;20574;-88
2022/10/31 01:25:09;;;;;;;9.57;6.67;;;;;;;12.72;94.45;98578.81;5164313;23;20616;-87
2022/10/31 01:27:12;;;;;;;9.50;6.33;;;;;;;12.69;94.73;98584.25;5164682;23;21108;-88
2022/10/31 01:29:15;;;;;;;10.33;6.50;;;;;;;12.68;95.65;98582.56;5140145;23;20643;-88
2022/10/31 01:31:20;;;;;;;9.17;6.37;;;;;;;12.67;94.97;98574.00;5139824;23;20630;-88
2022/10/31 01:33:25;;;;;;;12.87;6.97;;;;;;;12.68;95.48;98590.41;5139259;23;20898;-89
2022/10/31 01:35:29;;;;;;;13.83;6.43;;;;;;;12.67;96.45;98587.91;5164077;23;20573;-88
2022/10/31 01:37:32;;;;;;;9.20;6.00;;;;;;;12.66;96.32;98580.16;5164248;23;21016;-88
2022/10/31 01:39:35;;;;;;;10.10;6.27;;;;;;;12.65;95.73;98581.13;5139482;23;20587;-88
2022/10/31 01:41:40;;;;;;;10.97;6.47;;;;;;;12.66;96.02;98581.03;5164701;23;21052;-88
2022/10/31 01:43:45;;;;;;;9.43;5.97;;;;;;;12.67;96.40;98580.06;5163734;23;20632;-88
2022/10/31 01:45:52;;;;;;;8.33;5.80;;;;;;;12.64;96.84;98574.19;5162772;23;21138;-88
2022/10/31 01:47:55;;;;;;;9.37;6.53;;;;;;;12.64;96.50;98568.97;5139137;23;20574;-88
2022/10/31 01:50:02;;;;;;;9.50;6.20;;;;;;;12.66;95.83;98577.53;5139644;23;20596;-88
2022/10/31 01:52:06;;;;;;;10.80;5.93;;;;;;;12.66;95.88;98567.06;5191905;22;20572;-88
2022/10/31 01:54:13;;;;;;;11.33;5.73;;;;;;;12.64;95.99;98572.41;5164829;23;20576;-88
2022/10/31 01:56:17;;;;;;;10.27;5.90;;;;;;;12.63;96.23;98564.66;5163924;23;20687;-88
2022/10/31 01:58:24;;;;;;;10.50;6.03;;;;;;;12.61;95.18;98569.19;5139920;23;20613;-88
2022/10/31 02:00:27;;;;;;;9.13;6.43;;;;;;;12.59;94.97;98566.66;5190997;22;20584;-88
2022/10/31 02:02:31;;;;;;;9.90;6.30;;;;;;;12.58;95.66;98566.78;5139397;23;21186;-89
2022/10/31 02:04:35;;;;;;;9.90;5.53;;;;;;;12.56;96.29;98566.88;5163776;23;20597;-88
2022/10/31 02:06:46;;;;;;;13.63;6.40;;;;;;;12.55;96.10;98569.59;5139312;23;20585;-87
2022/10/31 02:08:49;;;;;;;8.50;5.80;;;;;;;12.54;95.40;98579.25;5164900;22;20611;-88
2022/10/31 02:10:53;;;;;;;9.30;6.53;;;;;;;12.53;96.52;98569.72;5139216;23;20574;-88
2022/10/31 02:12:57;;;;;;;10.60;5.83;;;;;;;12.52;95.73;98572.44;5139154;23;20637;-88
2022/10/31 02:15:01;;;;;;;9.70;6.73;;;;;;;12.51;95.01;98573.34;5139273;23;20942;-88
2022/10/31 02:17:04;;;;;;;10.57;6.43;;;;;;;12.48;95.36;98573.56;5138539;23;20614;-88
2022/10/31 02:19:09;;;;;;;12.17;6.00;;;;;;;12.46;96.10;98568.47;5188231;22;21241;-88
2022/10/31 02:21:16;;;;;;;10.90;5.67;;;;;;;12.45;96.05;98568.56;5139053;23;20629;-88
2022/10/31 02:23:52;;;;;;;11.97;6.40;;;;;;;12.44;95.23;98566.88;5139297;23;20570;-88
2022/10/31 02:26:12;;;;;;;13.07;6.00;;;;;;;12.43;95.60;98562.59;5117391;23;20637;-89
2022/10/31 02:28:32;;;;;;;10.07;6.77;;;;;;;12.40;95.22;98566.28;5164850;23;20648;-88
2022/10/31 02:30:42;;;;;;;11.33;5.83;;;;;;;12.40;96.16;98560.19;5138829;23;20669;-88
2022/10/31 02:32:54;;;;;;;9.80;5.90;;;;;;;12.38;95.42;98560.28;5139055;23;20944;-88
2022/10/31 02:35:00;;;;;;;11.30;5.37;;;;;;;12.38;96.96;98564.69;5163278;23;20904;-88
2022/10/31 02:37:09;;;;;;;11.67;6.77;;;;;;;12.37;96.85;98565.63;5164105;23;20558;-88
2022/10/31 02:39:15;;;;;;;8.83;5.80;;;;;;;12.38;97.23;98562.06;5139166;23;20693;-88
2022/10/31 02:41:22;;;;;;;9.60;5.77;;;;;;;12.38;96.12;98577.75;5139205;23;20570;-88
2022/10/31 02:43:32;;;;;;;8.17;5.37;;;;;;;12.35;95.93;98573.56;5164041;23;20622;-88
2022/10/31 02:45:41;;;;;;;8.70;5.70;;;;;;;12.33;95.16;98574.63;5163454;23;20607;-88
2022/10/31 02:47:45;;;;;;;10.27;5.57;;;;;;;12.32;94.96;98565.94;5138617;23;20585;-88
2022/10/31 02:49:56;;;;;;;11.57;5.43;;;;;;;12.31;95.79;98563.41;5138893;23;20644;-88
2022/10/31 02:51:59;;;;;;;11.70;5.83;;;;;;;12.30;96.18;98562.59;5138465;23;20569;-88
2022/10/31 02:54:02;;;;;;;8.77;5.30;;;;;;;12.32;96.34;98572.94;5163974;23;20578;-88
2022/10/31 02:56:10;;;;;;;12.13;6.20;;;;;;;12.32;96.89;98565.09;5138745;23;20665;-88
2022/10/31 02:58:16;;;;;;;18.60;5.97;;;;;;;12.30;95.80;98573.06;5138510;23;20608;-87
2022/10/31 03:00:20;;;;;;;13.80;6.20;;;;;;;12.29;97.32;98575.78;5164149;23;20597;-88
2022/10/31 03:02:47;;;;;;;8.50;6.00;;;;;;;12.28;96.30;98564.47;5190829;22;20571;-88
2022/10/31 03:05:02;;;;;;;9.50;5.53;;;;;;;12.29;96.74;98562.69;5138881;23;21232;-88
2022/10/31 03:07:09;;;;;;;9.43;5.80;;;;;;;12.30;96.62;98569.59;5163977;23;20587;-88
2022/10/31 03:09:21;;;;;;;9.57;5.27;;;;;;;12.28;96.50;98566.22;5139492;23;20614;-88
2022/10/31 03:11:30;;;;;;;9.53;5.40;;;;;;;12.26;95.82;98565.50;5138636;23;20570;-88
2022/10/31 03:13:36;;;;;;;12.80;6.10;;;;;;;12.25;96.19;98567.31;5138516;23;20574;-88
2022/10/31 03:15:42;;;;;;;13.53;5.80;;;;;;;12.23;96.59;98566.53;5163152;23;21156;-88
2022/10/31 03:17:52;;;;;;;8.27;5.60;;;;;;;12.23;95.67;98564.88;5138227;23;20652;-89
2022/10/31 03:19:59;;;;;;;10.13;5.60;;;;;;;12.22;95.96;98555.34;5137760;23;20695;-88
2022/10/31 03:22:05;;;;;;;10.83;5.73;;;;;;;12.21;96.77;98559.75;5164098;23;20615;-88
2022/10/31 03:24:10;;;;;;;8.07;5.23;;;;;;;12.20;96.98;98563.31;5139025;23;20594;-88
2022/10/31 03:26:16;;;;;;;7.97;5.90;;;;;;;12.20;95.36;98558.06;5139143;23;20606;-88
2022/10/31 03:28:22;;;;;;;10.20;6.17;;;;;;;12.17;97.22;98563.50;5139475;23;21002;-89
2022/10/31 03:30:26;;;;;;;8.13;5.60;;;;;;;12.17;96.32;98562.69;5163336;23;20584;-87
2022/10/31 03:32:35;;;;;;;7.93;6.37;;;;;;;12.17;95.05;98563.50;5138511;23;20562;-88
2022/10/31 03:34:40;;;;;;;9.30;5.83;;;;;;;12.16;96.37;98572.28;5138695;23;20581;-89
2022/10/31 03:36:45;;;;;;;8.07;5.27;;;;;;;12.14;96.62;98563.72;5138992;23;20590;-88
2022/10/31 03:38:48;;;;;;;9.93;6.17;;;;;;;12.11;96.68;98569.16;5138558;23;21567;-88
2022/10/31 03:40:55;;;;;;;11.93;6.00;;;;;;;12.11;96.00;98566.53;5138698;23;20589;-88
2022/10/31 03:43:00;;;;;;;10.07;5.30;;;;;;;12.10;96.45;98567.47;5162736;23;20647;-88
2022/10/31 03:45:07;;;;;;;8.20;5.67;;;;;;;12.08;96.35;98558.91;5163261;23;20823;-88
2022/10/31 03:47:10;;;;;;;8.23;5.73;;;;;;;12.07;96.02;98570.31;5137476;23;20641;-88
2022/10/31 03:49:14;;;;;;;9.77;5.70;;;;;;;12.06;96.98;98568.63;5138623;23;20676;-88
2022/10/31 03:51:23;;;;;;;10.50;6.10;;;;;;;12.07;96.58;98566.84;5138906;23;20632;-88
2022/10/31 03:53:33;;;;;;;8.43;5.60;;;;;;;12.05;95.12;98564.34;5138237;23;20631;-88
2022/10/31 03:55:41;;;;;;;8.90;5.37;;;;;;;12.03;95.79;98568.84;5163346;23;20605;-88
2022/10/31 03:57:52;;;;;;;11.07;5.80;;;;;;;12.02;96.32;98569.75;5138628;23;21001;-88
2022/10/31 04:00:00;;;;;;;12.57;5.70;;;;;;;11.98;95.78;98565.69;5163327;23;20570;-88
2022/10/31 04:02:06;;;;;;;9.60;5.83;;;;;;;11.98;96.37;98565.69;5162806;23;20578;-88
2022/10/31 04:04:10;;;;;;;10.23;5.87;;;;;;;11.95;95.19;98568.50;5163547;23;20585;-88
2022/10/31 04:06:15;;;;;;;11.07;5.50;;;;;;;11.94;94.51;98556.38;5138116;23;20663;-88
2022/10/31 04:08:22;;;;;;;11.33;5.20;;;;;;;11.94;94.67;98555.53;5162613;22;20613;-88
2022/10/31 04:10:28;;;;;;;10.57;6.00;;;;;;;11.94;95.19;98555.53;5138530;23;20585;-88
2022/10/31 04:12:36;;;;;;;9.60;5.80;;;;;;;11.92;95.92;98554.78;5163133;23;20561;-88
2022/10/31 04:14:50;;;;;;;8.17;5.00;;;;;;;11.92;96.21;98563.50;5136978;23;20587;-88
2022/10/31 04:16:53;;;;;;;8.37;6.17;;;;;;;11.92;96.00;98560.00;5162870;23;20580;-88
2022/10/31 04:19:03;;;;;;;8.93;5.33;;;;;;;11.90;97.03;98552.28;5163874;23;20672;-88
2022/10/31 04:21:08;;;;;;;9.30;6.20;;;;;;;11.90;96.07;98554.06;5163649;23;20584;-88
2022/10/31 04:23:17;;;;;;;13.13;6.20;;;;;;;11.91;96.35;98555.75;5138579;23;20601;-88
2022/10/31 04:25:20;;;;;;;10.20;6.23;;;;;;;11.89;95.91;98548.00;5137530;23;20592;-89
2022/10/31 04:27:25;;;;;;;13.33;6.40;;;;;;;11.88;97.49;98546.31;5137679;23;20570;-88
2022/10/31 04:29:28;;;;;;;12.33;7.37;;;;;;;11.89;97.22;98544.53;5137635;23;20900;-89
2022/10/31 04:31:32;;;;;;;9.60;6.37;;;;;;;11.89;96.84;98548.00;5135749;23;20581;-87
2022/10/31 04:33:35;;;;;;;10.83;5.93;;;;;;;11.89;96.28;98548.00;5190753;22;21183;-88
2022/10/31 04:35:38;;;;;;;8.90;5.93;;;;;;;11.88;97.40;98551.53;5161970;23;21136;-88
2022/10/31 04:37:41;;;;;;;13.53;6.53;;;;;;;11.88;96.45;98548.09;5138529;23;20609;-88
2022/10/31 04:39:44;;;;;;;9.20;6.63;;;;;;;11.88;97.54;98546.31;5163101;23;20580;-88
2022/10/31 04:42:06;;;;;;;7.80;5.90;;;;;;;11.88;96.01;98543.72;5162976;23;20945;-89
2022/10/31 04:44:10;;;;;;;11.80;6.37;;;;;;;11.89;97.08;98542.78;5138124;23;20574;-88
2022/10/31 04:46:14;;;;;;;10.43;5.80;;;;;;;11.89;97.52;98541.91;5162636;23;20641;-88
2022/10/31 04:48:17;;;;;;;11.67;5.90;;;;;;;11.86;96.21;98542.97;5138649;23;20644;-89
2022/10/31 04:50:20;;;;;;;9.77;5.80;;;;;;;11.84;97.16;98538.78;5137903;23;20627;-89
2022/10/31 04:52:23;;;;;;;9.30;5.40;;;;;;;11.84;96.91;98536.16;5138423;23;20585;-88
2022/10/31 04:54:27;;;;;;;11.80;5.70;;;;;;;11.83;96.49;98529.25;5138495;23;20627;-88
2022/10/31 04:56:56;;;;;;;7.70;5.30;;;;;;;11.81;95.56;98531.16;5162838;23;20659;-88
2022/10/31 04:58:59;;;;;;;8.37;5.30;;;;;;;11.82;96.15;98528.44;5163388;23;20556;-86
2022/10/31 05:01:09;;;;;;;9.13;5.43;;;;;;;11.78;94.96;98529.56;5162278;23;20621;-87
2022/10/31 05:03:12;;;;;;;7.30;5.70;;;;;;;11.76;95.36;98523.59;5161717;23;21220;-87
2022/10/31 05:05:17;;;;;;;11.00;6.27;;;;;;;11.75;95.36;98521.91;5137643;23;20577;-87
2022/10/31 05:07:20;;;;;;;8.93;6.20;;;;;;;11.76;96.50;98517.56;5138626;23;20767;-87
2022/10/31 05:09:24;;;;;;;9.53;5.43;;;;;;;11.75;94.99;98520.28;5162970;23;20615;-87
2022/10/31 05:11:28;;;;;;;12.07;5.17;;;;;;;11.75;97.01;98516.69;5162825;23;20594;-87
2022/10/31 05:13:40;;;;;;;9.00;5.17;;;;;;;11.75;96.46;98514.09;5137548;23;20693;-87
2022/10/31 05:16:06;;;;;;;8.33;5.40;;;;;;;11.75;94.49;98509.81;5189011;22;20588;-87
2022/10/31 05:18:17;;;;;;;9.60;5.23;;;;;;;11.75;96.33;98508.84;5190282;22;20547;-87
2022/10/31 05:20:39;;;;;;;7.60;5.03;;;;;;;11.74;95.74;98495.06;5162992;23;20570;-87
2022/10/31 05:22:53;;;;;;;9.83;5.73;;;;;;;11.74;96.34;98505.53;5163474;23;20624;-87
2022/10/31 05:24:55;;;;;;;9.33;5.47;;;;;;;11.74;95.80;98506.34;5136905;23;20579;-87
2022/10/31 05:26:59;;;;;;;16.50;5.80;;;;;;;11.74;95.46;98495.06;5138144;23;20645;-87
2022/10/31 05:29:02;;;;;;;7.63;5.43;;;;;;;11.73;95.74;98501.22;5163272;23;20604;-87
2022/10/31 05:31:05;;;;;;;12.03;5.60;;;;;;;11.72;96.09;98505.63;5136881;23;21183;-87
2022/10/31 05:33:08;;;;;;;7.70;5.37;;;;;;;11.72;96.53;98504.78;5138101;23;20593;-87
2022/10/31 05:35:24;;;;;;;11.20;5.50;;;;;;;11.66;94.51;98492.13;5162252;23;21156;-87
2022/10/31 05:37:45;;;;;;;14.63;5.00;;;;;;;11.67;94.72;98499.03;5137890;23;20584;-87
2022/10/31 05:39:48;;;;;;;8.50;5.57;;;;;;;11.66;94.57;98492.97;5137748;23;20581;-87
2022/10/31 05:41:52;;;;;;;8.80;5.93;;;;;;;11.66;95.46;98502.59;5163088;23;20932;-87
2022/10/31 05:44:00;;;;;;;9.47;5.60;;;;;;;11.64;94.97;98491.41;5137809;23;20577;-87
2022/10/31 05:46:05;;;;;;;10.27;5.93;;;;;;;11.61;95.10;98492.44;5137298;23;20585;-87
2022/10/31 05:48:27;;;;;;;9.83;5.40;;;;;;;11.62;94.88;98490.66;5162590;23;20575;-87
2022/10/31 05:50:50;;;;;;;6.90;4.83;;;;;;;11.61;95.74;98500.28;5163149;23;20588;-88
2022/10/31 05:52:57;;;;;;;8.80;5.20;;;;;;;11.60;96.80;98503.00;5137181;23;20638;-87
2022/10/31 05:55:06;;;;;;;10.00;5.40;;;;;;;11.57;95.16;98495.34;5137360;23;20582;-87
2022/10/31 05:57:09;;;;;;;7.40;5.63;;;;;;;11.55;96.65;98505.91;5137881;23;20618;-87
2022/10/31 05:59:12;;;;;;;7.70;5.77;;;;;;;11.55;94.26;98505.91;5137780;23;20581;-87
2022/10/31 06:01:16;;;;;;;8.67;5.50;;;;;;;11.53;96.12;98507.78;5162284;23;20616;-87
2022/10/31 06:03:20;;;;;;;8.57;5.00;;;;;;;11.54;96.71;98506.00;5137993;23;20581;-87
2022/10/31 06:05:32;;;;;;;9.53;5.93;;;;;;;11.55;96.14;98510.31;5137611;23;21307;-87
2022/10/31 06:07:37;;;;;;;11.03;5.50;;;;;;;11.54;94.79;98508.63;5164014;22;20600;-87
2022/10/31 06:09:40;;;;;;;8.17;5.60;;;;;;;11.51;95.31;98500.97;5165277;23;20562;-87
2022/10/31 06:11:43;;;;;;;6.73;4.97;;;;;;;11.42;93.81;98504.16;5164454;23;20971;-87
2022/10/31 06:14:07;;;;;;;7.27;5.63;;;;;;;11.36;94.21;98497.53;5164464;23;20580;-87
2022/10/31 06:16:18;;;;;;;6.40;5.03;;;;;;;11.34;94.02;98499.44;5164125;23;20595;-87
2022/10/31 06:18:21;;;;;;;9.47;5.47;;;;;;;11.31;93.86;98502.22;5140004;23;20565;-87
2022/10/31 06:20:27;;;;;;;7.60;5.77;;;;;;;11.28;95.34;98501.59;5138719;23;20577;-87
2022/10/31 06:22:39;;;;;;;9.07;5.50;;;;;;;11.31;94.57;98496.19;5164202;23;20878;-87
2022/10/31 06:24:41;;;;;;;9.20;5.57;;;;;;;11.33;95.99;98502.97;5164167;23;20580;-87
2022/10/31 06:27:00;;;;;;;8.90;6.30;;;;;;;11.35;94.52;98502.88;5138880;23;20601;-87
2022/10/31 06:29:04;;;;;;;9.23;5.53;;;;;;;11.37;95.35;98503.63;5138753;23;20587;-87
2022/10/31 06:31:30;;;;;;;7.43;5.30;;;;;;;11.43;95.51;98498.00;5177170;22;20656;-87
2022/10/31 06:33:33;;;;;;;6.93;5.40;;;;;;;11.49;95.28;98498.47;5139479;23;20595;-87
2022/10/31 06:35:37;;;;;;;8.13;5.50;;;;;;;11.56;94.69;98504.13;5164543;23;20974;-86
2022/10/31 06:37:41;;;;;;;8.07;5.57;;;;;;;11.65;95.94;98508.75;5139622;23;20573;-85
2022/10/31 06:40:03;;;;;;;8.60;5.40;;;;;;;11.75;96.24;98509.81;5164111;23;20576;-87
2022/10/31 06:42:11;;;;;;;7.33;4.80;;;;;;;11.84;95.21;98508.25;5139317;23;20569;-86
2022/10/31 06:44:14;;;;;;;8.40;5.23;;;;;;;11.91;95.64;98509.53;5163743;23;20614;-88
2022/10/31 06:46:20;;;;;;;8.27;5.93;;;;;;;11.94;95.47;98513.72;5189636;22;20567;-87
2022/10/31 06:48:36;;;;;;;8.83;6.33;;;;;;;11.95;95.80;98508.41;5138365;23;20597;-87
2022/10/31 06:50:57;;;;;;;8.40;4.60;;;;;;;11.96;95.27;98510.03;5138893;23;20640;-87
2022/10/31 06:53:03;;;;;;;9.67;5.47;;;;;;;11.97;94.91;98506.50;5138694;23;20573;-87
2022/10/31 06:55:07;;;;;;;6.50;5.20;;;;;;;12.00;95.29;98513.31;5138803;23;20624;-87
2022/10/31 06:57:10;;;;;;;7.53;5.20;;;;;;;12.03;95.75;98507.88;5163096;23;21092;-87
2022/10/31 06:59:14;;;;;;;10.00;5.20;;;;;;;12.09;94.97;98502.19;5137127;23;20577;-88
2022/10/31 07:01:36;;;;;;;8.97;5.50;;;;;;;12.17;93.76;98511.22;5188385;22;20556;-87
2022/10/31 07:03:39;;;;;;;11.87;5.40;;;;;;;12.23;93.87;98516.03;5137905;23;21009;-87
2022/10/31 07:05:44;;;;;;;10.37;6.23;;;;;;;12.30;94.55;98512.06;5137661;23;20591;-87
2022/10/31 07:07:47;;;;;;;10.07;5.63;;;;;;;12.34;93.42;98514.38;5138058;23;21239;-86
2022/10/31 07:09:52;;;;;;;14.73;6.10;;;;;;;12.40;93.57;98513.94;5187481;22;20651;-86
2022/10/31 07:12:06;;;;;;;10.03;5.97;;;;;;;12.48;92.36;98516.88;5137511;23;20581;-87
2022/10/31 07:14:13;;;;;;;16.03;6.43;;;;;;;12.59;93.86;98518.75;5163574;23;20575;-86
2022/10/31 07:16:17;;;;;;;8.20;5.17;;;;;;;12.67;94.36;98512.00;5162101;23;20566;-87
2022/10/31 07:18:22;;;;;;;8.30;5.50;;;;;;;12.74;94.62;98511.47;5138227;23;20581;-85
2022/10/31 07:20:25;;;;;;;11.80;6.13;;;;;;;12.80;94.20;98520.69;5189509;22;20583;-86
2022/10/31 07:22:33;;;;;;;10.00;5.23;;;;;;;12.79;93.70;98517.25;5138609;23;20610;-87
2022/10/31 07:24:36;;;;;;;7.70;5.30;;;;;;;12.80;93.72;98520.69;5138227;23;20642;-87
2022/10/31 07:26:56;;;;;;;19.33;7.07;;;;;;;12.80;95.07;98521.53;5160334;23;20699;-86
2022/10/31 07:28:59;;;;;;;14.20;7.00;;;;;;;12.81;95.61;98530.22;5138393;23;20608;-86
2022/10/31 07:31:03;;;;;;;16.07;7.80;;;;;;;12.82;96.02;98527.53;5188011;22;20583;-86
2022/10/31 07:33:07;;;;;;;21.03;8.47;;;;;;;12.82;96.12;98537.13;5161068;23;20582;-87
2022/10/31 07:35:30;;;;;;;20.20;8.20;;;;;;;12.82;95.01;98535.38;5159242;23;21539;-86
2022/10/31 07:37:34;;;;;;;19.47;7.30;;;;;;;12.88;95.48;98532.31;5135506;23;20612;-88
2022/10/31 07:39:37;;;;;;;11.43;7.27;;;;;;;12.94;95.04;98537.13;5133951;23;20677;-88
2022/10/31 07:41:42;;;;;;;15.70;7.80;;;;;;;13.01;95.46;98541.00;5159337;23;20564;-88
2022/10/31 07:43:46;;;;;;;12.97;7.50;;;;;;;13.03;96.50;98552.19;5157976;23;20981;-88
2022/10/31 07:45:53;;;;;;;12.10;6.77;;;;;;;13.02;96.65;98553.16;5187448;22;20588;-88
2022/10/31 07:48:19;;;;;;;12.13;7.40;;;;;;;13.03;96.45;98551.34;5185436;22;20618;-88
2022/10/31 07:50:48;;;;;;;12.93;7.00;;;;;;;13.08;96.27;98555.34;5140392;23;21028;-87
2022/10/31 07:52:59;;;;;;;15.00;6.07;;;;;;;13.16;95.83;98553.00;5190426;22;20638;-87
2022/10/31 07:55:22;;;;;;;16.07;7.20;;;;;;;13.18;96.11;98546.72;5179554;22;20730;-87
2022/10/31 07:57:25;;;;;;;13.43;7.33;;;;;;;13.19;95.39;98542.31;5163769;23;21402;-87
2022/10/31 07:59:37;;;;;;;10.53;7.03;;;;;;;13.17;94.25;98541.59;5139038;23;20661;-88
2022/10/31 08:01:42;;;;;;;10.17;7.23;;;;;;;13.21;94.89;98545.63;5163584;23;20562;-87
2022/10/31 08:04:03;;;;;;;14.10;7.20;;;;;;;13.33;95.75;98540.34;5163429;23;20664;-89
2022/10/31 08:06:27;;;;;;;14.27;7.77;;;;;;;13.46;95.63;98542.94;5158665;22;20638;-87
2022/10/31 08:08:49;;;;;;;11.73;8.00;;;;;;;13.55;96.59;98537.03;5163233;22;20620;-88
2022/10/31 08:10:53;;;;;;;11.20;7.97;;;;;;;13.63;97.02;98537.31;5139199;23;20588;-88
2022/10/31 08:12:57;;;;;;;13.73;8.57;;;;;;;13.68;97.10;98539.47;5164272;23;20573;-91
2022/10/31 08:15:02;;;;;;;11.37;7.63;;;;;;;13.76;96.14;98539.75;5163865;23;21069;-88
2022/10/31 08:17:05;;;;;;;17.97;8.20;;;;;;;13.82;95.34;98536.66;5138866;23;20590;-88
2022/10/31 08:19:17;;;;;;;18.87;7.73;;;;;;;13.90;95.36;98542.16;5139381;23;20578;-89
2022/10/31 08:21:20;;;;;;;11.67;7.67;;;;;;;14.01;96.70;98538.75;5164009;23;20566;-88
2022/10/31 08:23:23;;;;;;;15.97;8.37;;;;;;;14.04;95.21;98538.50;5138966;23;20664;-88
2022/10/31 08:25:30;;;;;;;11.87;6.70;;;;;;;14.12;96.50;98541.44;5186916;22;20609;-87
2022/10/31 08:27:40;;;;;;;13.33;7.63;;;;;;;14.20;95.43;98539.91;5136590;23;20607;-88
2022/10/31 08:29:51;;;;;;;10.37;7.53;;;;;;;14.22;95.30;98541.47;5135815;23;20628;-87
2022/10/31 08:31:55;;;;;;;10.17;7.67;;;;;;;14.24;94.50;98544.00;5162595;23;20555;-86
2022/10/31 08:34:17;;;;;;;10.77;7.47;;;;;;;14.32;94.77;98538.97;5161555;23;21336;-87
2022/10/31 08:36:44;;;;;;;10.53;7.27;;;;;;;14.38;94.96;98541.13;5162280;23;20674;-87
2022/10/31 08:38:57;;;;;;;12.33;7.80;;;;;;;14.45;95.08;98547.56;5162554;23;20582;-89
2022/10/31 08:41:05;;;;;;;8.53;7.13;;;;;;;14.52;95.32;98551.41;5137914;23;20581;-87
2022/10/31 08:43:12;;;;;;;10.13;8.07;;;;;;;14.55;95.17;98544.13;5137764;23;20589;-88
2022/10/31 08:45:15;;;;;;;14.20;8.20;;;;;;;14.55;94.86;98538.88;5136548;23;20641;-87
2022/10/31 08:47:20;;;;;;;13.23;8.07;;;;;;;14.59;94.75;98539.50;5163272;23;20562;-85
2022/10/31 08:49:23;;;;;;;9.33;8.00;;;;;;;14.64;95.38;98538.19;5163604;23;20599;-86
2022/10/31 08:51:27;;;;;;;11.40;8.00;;;;;;;14.71;95.59;98532.31;5136535;23;20877;-86
2022/10/31 08:53:31;;;;;;;19.47;9.30;;;;;;;14.77;95.44;98541.53;5161184;23;20601;-87
2022/10/31 08:55:56;;;;;;;12.43;8.30;;;;;;;14.83;95.56;98541.06;5137886;23;20600;-87
2022/10/31 08:58:00;;;;;;;22.17;8.57;;;;;;;14.90;96.87;98537.84;5138386;23;20580;-88
2022/10/31 09:00:12;;;;;;;12.40;8.60;;;;;;;14.96;96.71;98536.50;5160264;23;20578;-87
2022/10/31 09:02:44;;;;;;;11.17;7.97;;;;;;;15.04;97.10;98531.50;5162608;22;20578;-86
2022/10/31 09:04:50;;;;;;;10.30;8.00;;;;;;;15.07;96.54;98519.75;5134241;23;21701;-86
2022/10/31 09:06:54;;;;;;;12.73;8.07;;;;;;;15.18;96.69;98526.84;5135425;23;20600;-86
2022/10/31 09:09:20;;;;;;;10.40;7.53;;;;;;;15.25;97.42;98530.66;5133729;23;20620;-86
2022/10/31 09:11:27;;;;;;;10.53;6.97;;;;;;;15.30;95.42;98510.91;5135019;23;20595;-87
2022/10/31 09:13:46;;;;;;;15.50;9.53;;;;;;;15.43;96.45;98516.03;5159336;23;20605;-87
2022/10/31 09:16:24;;;;;;;13.13;7.87;;;;;;;15.58;97.75;98519.06;5160868;23;20673;-87
2022/10/31 09:18:31;;;;;;;11.17;8.50;;;;;;;15.66;96.34;98524.53;5137260;23;20679;-87
2022/10/31 09:20:39;;;;;;;9.77;7.90;;;;;;;15.73;97.43;98520.47;5136594;23;21134;-88
2022/10/31 09:22:43;;;;;;;11.73;8.57;;;;;;;15.83;98.32;98520.53;5136646;23;20580;-88
2022/10/31 09:24:46;;;;;;;13.60;8.63;;;;;;;15.92;97.63;98518.00;5136219;23;21233;-88
2022/10/31 09:26:49;;;;;;;11.57;7.67;;;;;;;16.02;98.91;98521.50;5137647;23;20600;-88
2022/10/31 09:29:01;;;;;;;13.40;8.37;;;;;;;16.11;97.92;98511.03;5162927;23;20638;-88
2022/10/31 09:31:05;;;;;;;10.80;8.20;;;;;;;16.20;98.11;98512.91;5188688;22;20610;-88
2022/10/31 09:33:35;;;;;;;10.33;8.90;;;;;;;16.31;96.50;98509.41;5138347;23;21137;-88
2022/10/31 09:35:59;;;;;;;11.30;8.53;;;;;;;16.41;98.09;98518.22;5189783;22;20617;-87
2022/10/31 09:38:04;;;;;;;13.37;7.90;;;;;;;16.50;96.58;98511.19;5162583;23;20587;-88
2022/10/31 09:40:09;;;;;;;10.60;7.50;;;;;;;16.54;97.70;98517.88;5139558;23;20576;-88
2022/10/31 09:42:44;;;;;;;12.30;8.60;;;;;;;16.62;97.57;98515.41;5190030;22;20571;-88
2022/10/31 09:45:02;;;;;;;11.10;8.57;;;;;;;16.71;97.42;98511.16;5159651;23;20587;-87
2022/10/31 09:47:15;;;;;;;10.80;8.00;;;;;;;16.76;97.55;98516.84;5164802;23;20580;-87
2022/10/31 09:49:40;;;;;;;12.13;8.73;;;;;;;16.83;98.44;98510.94;5139085;23;20710;-87
2022/10/31 09:51:46;;;;;;;11.13;9.10;;;;;;;16.87;97.99;98506.22;5165099;23;20580;-87
2022/10/31 09:54:06;;;;;;;10.93;8.07;;;;;;;16.90;98.10;98506.81;5139479;23;20664;-88
2022/10/31 09:56:11;;;;;;;11.90;7.80;;;;;;;16.95;98.44;98504.59;5139417;23;20572;-87
2022/10/31 09:58:17;;;;;;;11.33;9.20;;;;;;;17.01;98.57;98504.88;5164567;23;20584;-87